sensor_id;sensor_type;location;lat;lon;timestamp;temperature;humidity
71304;DHT22;59091;47.446;19.148;2023-01-28T00:02:17;3.87;67.46
71304;DHT22;59091;47.446;19.148;2023-01-28T00:04:43;3.84;67.63
71304;DHT22;59091;47.446;19.148;2023-01-28T00:07:09;3.92;67.54
71304;DHT22;59091;47.446;19.148;2023-01-28T00:09:34;3.73;67.34
71304;DHT22;59091;47.446;19.148;2023-01-28T00:11:59;3.77;67.51
71304;DHT22;59091;47.446;19.148;2023-01-28T00:14:25;3.78;67.29
71304;DHT22;59091;47.446;19.148;2023-01-28T00:16:50;3.84;67.24
71304;DHT22;59091;47.446;19.148;2023-01-28T00:19:16;3.74;67.60
71304;DHT22;59091;47.446;19.148;2023-01-28T00:21:41;3.63;67.21
71304;DHT22;59091;47.446;19.148;2023-01-28T00:24:07;3.85;67.10
71304;DHT22;59091;47.446;19.148;2023-01-28T00:26:34;3.71;67.17
71304;DHT22;59091;47.446;19.148;2023-01-28T00:29:00;3.81;66.96
71304;DHT22;59091;47.446;19.148;2023-01-28T00:31:26;3.90;66.90
71304;DHT22;59091;47.446;19.148;2023-01-28T00:33:53;3.94;66.62
71304;DHT22;59091;47.446;19.148;2023-01-28T00:36:20;3.99;66.18
71304;DHT22;59091;47.446;19.148;2023-01-28T00:38:50;3.71;66.36
71304;DHT22;59091;47.446;19.148;2023-01-28T00:41:18;3.74;66.25
71304;DHT22;59091;47.446;19.148;2023-01-28T00:43:46;3.88;66.23
71304;DHT22;59091;47.446;19.148;2023-01-28T00:46:12;3.81;66.09
71304;DHT22;59091;47.446;19.148;2023-01-28T00:48:39;3.59;66.21
71304;DHT22;59091;47.446;19.148;2023-01-28T00:51:06;3.60;66.43
71304;DHT22;59091;47.446;19.148;2023-01-28T00:53:32;3.54;66.66
71304;DHT22;59091;47.446;19.148;2023-01-28T00:56:03;3.69;66.40
71304;DHT22;59091;47.446;19.148;2023-01-28T00:58:30;3.73;66.47
71304;DHT22;59091;47.446;19.148;2023-01-28T01:00:55;3.74;66.11
71304;DHT22;59091;47.446;19.148;2023-01-28T01:03:21;3.75;66.11
71304;DHT22;59091;47.446;19.148;2023-01-28T01:05:46;3.87;65.98
71304;DHT22;59091;47.446;19.148;2023-01-28T01:08:12;3.84;65.74
71304;DHT22;59091;47.446;19.148;2023-01-28T01:10:38;3.82;65.78
71304;DHT22;59091;47.446;19.148;2023-01-28T01:13:05;3.92;65.85
71304;DHT22;59091;47.446;19.148;2023-01-28T01:15:31;3.78;66.04
71304;DHT22;59091;47.446;19.148;2023-01-28T01:17:56;3.91;65.86
71304;DHT22;59091;47.446;19.148;2023-01-28T01:20:25;3.87;65.57
71304;DHT22;59091;47.446;19.148;2023-01-28T01:22:51;3.88;65.79
71304;DHT22;59091;47.446;19.148;2023-01-28T01:25:17;3.85;65.69
71304;DHT22;59091;47.446;19.148;2023-01-28T01:27:43;3.70;65.79
71304;DHT22;59091;47.446;19.148;2023-01-28T01:30:11;3.75;65.79
71304;DHT22;59091;47.446;19.148;2023-01-28T01:32:36;3.81;65.62
71304;DHT22;59091;47.446;19.148;2023-01-28T01:35:04;3.64;65.83
71304;DHT22;59091;47.446;19.148;2023-01-28T01:37:33;3.75;65.96
71304;DHT22;59091;47.446;19.148;2023-01-28T01:39:59;3.94;65.61
71304;DHT22;59091;47.446;19.148;2023-01-28T01:42:26;3.91;65.59
71304;DHT22;59091;47.446;19.148;2023-01-28T01:50:08;4.04;65.24
71304;DHT22;59091;47.446;19.148;2023-01-28T01:52:36;3.82;65.60
71304;DHT22;59091;47.446;19.148;2023-01-28T01:55:06;3.77;65.80
71304;DHT22;59091;47.446;19.148;2023-01-28T01:57:35;3.95;65.56
71304;DHT22;59091;47.446;19.148;2023-01-28T02:00:03;3.92;65.74
71304;DHT22;59091;47.446;19.148;2023-01-28T02:02:38;3.94;65.64
71304;DHT22;59091;47.446;19.148;2023-01-28T02:05:08;3.90;66.13
71304;DHT22;59091;47.446;19.148;2023-01-28T02:07:35;3.81;66.38
71304;DHT22;59091;47.446;19.148;2023-01-28T02:10:02;3.74;66.88
71304;DHT22;59091;47.446;19.148;2023-01-28T02:12:33;3.84;66.43
71304;DHT22;59091;47.446;19.148;2023-01-28T02:15:06;3.87;66.36
71304;DHT22;59091;47.446;19.148;2023-01-28T02:17:33;3.84;66.20
71304;DHT22;59091;47.446;19.148;2023-01-28T02:20:07;3.64;66.67
71304;DHT22;59091;47.446;19.148;2023-01-28T02:26:34;3.73;66.23
71304;DHT22;59091;47.446;19.148;2023-01-28T02:31:28;3.67;67.06
71304;DHT22;59091;47.446;19.148;2023-01-28T02:36:48;3.80;66.91
71304;DHT22;59091;47.446;19.148;2023-01-28T02:39:36;3.75;67.16
71304;DHT22;59091;47.446;19.148;2023-01-28T02:42:12;3.73;67.55
71304;DHT22;59091;47.446;19.148;2023-01-28T02:44:40;3.90;67.35
71304;DHT22;59091;47.446;19.148;2023-01-28T02:47:10;4.01;66.97
71304;DHT22;59091;47.446;19.148;2023-01-28T02:49:55;4.08;66.85
71304;DHT22;59091;47.446;19.148;2023-01-28T02:55:20;3.98;67.08
71304;DHT22;59091;47.446;19.148;2023-01-28T03:03:24;3.99;67.46
71304;DHT22;59091;47.446;19.148;2023-01-28T03:05:55;3.87;67.81
71304;DHT22;59091;47.446;19.148;2023-01-28T03:11:50;3.90;68.20
71304;DHT22;59091;47.446;19.148;2023-01-28T03:14:37;3.95;68.33
71304;DHT22;59091;47.446;19.148;2023-01-28T03:20:24;3.97;68.56
71304;DHT22;59091;47.446;19.148;2023-01-28T03:23:13;3.99;68.49
71304;DHT22;59091;47.446;19.148;2023-01-28T03:26:00;4.12;68.31
71304;DHT22;59091;47.446;19.148;2023-01-28T03:28:47;3.97;68.51
71304;DHT22;59091;47.446;19.148;2023-01-28T03:31:32;3.94;69.11
71304;DHT22;59091;47.446;19.148;2023-01-28T03:34:19;3.66;69.64
71304;DHT22;59091;47.446;19.148;2023-01-28T03:37:05;3.66;70.26
71304;DHT22;59091;47.446;19.148;2023-01-28T03:39:31;3.43;70.73
71304;DHT22;59091;47.446;19.148;2023-01-28T03:42:02;3.43;70.81
71304;DHT22;59091;47.446;19.148;2023-01-28T03:44:27;3.63;70.46
71304;DHT22;59091;47.446;19.148;2023-01-28T03:47:12;3.73;70.12
71304;DHT22;59091;47.446;19.148;2023-01-28T03:49:41;3.84;69.86
71304;DHT22;59091;47.446;19.148;2023-01-28T03:52:10;3.94;69.73
71304;DHT22;59091;47.446;19.148;2023-01-28T03:54:36;3.97;69.62
71304;DHT22;59091;47.446;19.148;2023-01-28T03:57:02;4.01;69.50
71304;DHT22;59091;47.446;19.148;2023-01-28T03:59:27;3.85;69.84
71304;DHT22;59091;47.446;19.148;2023-01-28T04:01:52;3.84;69.81
71304;DHT22;59091;47.446;19.148;2023-01-28T04:04:19;3.91;70.03
71304;DHT22;59091;47.446;19.148;2023-01-28T04:06:52;3.84;70.01
71304;DHT22;59091;47.446;19.148;2023-01-28T04:09:18;3.49;70.89
71304;DHT22;59091;47.446;19.148;2023-01-28T04:11:43;3.59;71.11
71304;DHT22;59091;47.446;19.148;2023-01-28T04:14:09;3.63;70.92
71304;DHT22;59091;47.446;19.148;2023-01-28T04:16:34;3.53;71.13
71304;DHT22;59091;47.446;19.148;2023-01-28T04:19:00;3.56;71.04
71304;DHT22;59091;47.446;19.148;2023-01-28T04:21:25;3.51;71.23
71304;DHT22;59091;47.446;19.148;2023-01-28T04:23:50;3.40;71.44
71304;DHT22;59091;47.446;19.148;2023-01-28T04:26:16;3.49;71.29
71304;DHT22;59091;47.446;19.148;2023-01-28T04:28:41;3.44;71.38
71304;DHT22;59091;47.446;19.148;2023-01-28T04:31:07;3.39;71.82
71304;DHT22;59091;47.446;19.148;2023-01-28T04:33:32;3.43;71.77
71304;DHT22;59091;47.446;19.148;2023-01-28T04:35:58;3.43;71.76
71304;DHT22;59091;47.446;19.148;2023-01-28T04:38:23;3.59;71.26
71304;DHT22;59091;47.446;19.148;2023-01-28T04:40:52;3.59;71.10
71304;DHT22;59091;47.446;19.148;2023-01-28T04:43:18;3.61;71.07
71304;DHT22;59091;47.446;19.148;2023-01-28T04:45:45;3.70;70.79
71304;DHT22;59091;47.446;19.148;2023-01-28T04:48:11;3.74;70.59
71304;DHT22;59091;47.446;19.148;2023-01-28T04:50:36;3.75;70.61
71304;DHT22;59091;47.446;19.148;2023-01-28T04:53:02;3.64;70.39
71304;DHT22;59091;47.446;19.148;2023-01-28T04:55:27;3.75;70.45
71304;DHT22;59091;47.446;19.148;2023-01-28T04:57:52;3.61;70.36
71304;DHT22;59091;47.446;19.148;2023-01-28T05:00:18;3.63;70.67
71304;DHT22;59091;47.446;19.148;2023-01-28T05:02:43;3.51;70.84
71304;DHT22;59091;47.446;19.148;2023-01-28T05:05:09;3.53;71.12
71304;DHT22;59091;47.446;19.148;2023-01-28T05:07:35;3.37;71.12
71304;DHT22;59091;47.446;19.148;2023-01-28T05:10:00;3.46;71.38
71304;DHT22;59091;47.446;19.148;2023-01-28T05:12:26;3.60;70.99
71304;DHT22;59091;47.446;19.148;2023-01-28T05:14:51;3.73;70.62
71304;DHT22;59091;47.446;19.148;2023-01-28T05:17:17;3.67;70.66
71304;DHT22;59091;47.446;19.148;2023-01-28T05:19:43;3.57;70.84
71304;DHT22;59091;47.446;19.148;2023-01-28T05:22:10;3.60;70.86
71304;DHT22;59091;47.446;19.148;2023-01-28T05:24:36;3.54;70.90
71304;DHT22;59091;47.446;19.148;2023-01-28T05:27:01;3.54;70.94
71304;DHT22;59091;47.446;19.148;2023-01-28T05:29:27;3.63;70.80
71304;DHT22;59091;47.446;19.148;2023-01-28T05:31:52;3.64;70.83
71304;DHT22;59091;47.446;19.148;2023-01-28T05:34:18;3.70;70.51
71304;DHT22;59091;47.446;19.148;2023-01-28T05:36:43;3.73;70.52
71304;DHT22;59091;47.446;19.148;2023-01-28T05:39:09;3.64;70.36
71304;DHT22;59091;47.446;19.148;2023-01-28T05:41:34;3.60;70.56
71304;DHT22;59091;47.446;19.148;2023-01-28T05:43:59;3.60;70.20
71304;DHT22;59091;47.446;19.148;2023-01-28T05:46:25;3.66;70.19
71304;DHT22;59091;47.446;19.148;2023-01-28T05:48:50;3.74;69.87
71304;DHT22;59091;47.446;19.148;2023-01-28T05:51:16;3.71;70.04
71304;DHT22;59091;47.446;19.148;2023-01-28T05:53:42;3.67;70.21
71304;DHT22;59091;47.446;19.148;2023-01-28T05:56:07;3.61;70.31
71304;DHT22;59091;47.446;19.148;2023-01-28T05:58:33;3.67;69.98
71304;DHT22;59091;47.446;19.148;2023-01-28T06:00:58;3.78;69.82
71304;DHT22;59091;47.446;19.148;2023-01-28T06:03:24;3.63;70.10
71304;DHT22;59091;47.446;19.148;2023-01-28T06:05:49;3.57;70.10
71304;DHT22;59091;47.446;19.148;2023-01-28T06:08:15;3.60;70.09
71304;DHT22;59091;47.446;19.148;2023-01-28T06:10:40;3.71;69.75
71304;DHT22;59091;47.446;19.148;2023-01-28T06:13:06;3.69;69.76
71304;DHT22;59091;47.446;19.148;2023-01-28T06:15:31;3.54;70.11
71304;DHT22;59091;47.446;19.148;2023-01-28T06:17:56;3.56;70.02
71304;DHT22;59091;47.446;19.148;2023-01-28T06:20:22;3.57;70.02
71304;DHT22;59091;47.446;19.148;2023-01-28T06:22:50;3.61;69.94
71304;DHT22;59091;47.446;19.148;2023-01-28T06:25:16;3.77;69.69
71304;DHT22;59091;47.446;19.148;2023-01-28T06:27:41;3.88;69.57
71304;DHT22;59091;47.446;19.148;2023-01-28T06:30:07;3.90;69.34
71304;DHT22;59091;47.446;19.148;2023-01-28T06:32:33;3.94;69.23
71304;DHT22;59091;47.446;19.148;2023-01-28T06:34:58;3.95;69.19
71304;DHT22;59091;47.446;19.148;2023-01-28T06:37:24;4.01;69.32
71304;DHT22;59091;47.446;19.148;2023-01-28T06:39:49;3.99;69.40
71304;DHT22;59091;47.446;19.148;2023-01-28T06:42:15;3.97;69.70
71304;DHT22;59091;47.446;19.148;2023-01-28T06:44:40;3.90;70.25
71304;DHT22;59091;47.446;19.148;2023-01-28T06:47:05;3.87;70.55
71304;DHT22;59091;47.446;19.148;2023-01-28T06:49:31;4.21;81.66
71304;DHT22;59091;47.446;19.148;2023-01-28T06:51:57;3.99;71.37
71304;DHT22;59091;47.446;19.148;2023-01-28T06:54:22;3.90;70.83
71304;DHT22;59091;47.446;19.148;2023-01-28T06:56:48;3.88;71.12
71304;DHT22;59091;47.446;19.148;2023-01-28T06:59:13;3.85;71.09
71304;DHT22;59091;47.446;19.148;2023-01-28T07:01:38;3.84;71.32
71304;DHT22;59091;47.446;19.148;2023-01-28T07:04:04;3.81;71.48
71304;DHT22;59091;47.446;19.148;2023-01-28T07:06:29;3.91;71.35
71304;DHT22;59091;47.446;19.148;2023-01-28T07:08:55;3.94;71.34
71304;DHT22;59091;47.446;19.148;2023-01-28T07:11:20;4.05;71.05
71304;DHT22;59091;47.446;19.148;2023-01-28T07:13:46;3.84;71.46
71304;DHT22;59091;47.446;19.148;2023-01-28T07:16:12;3.85;71.89
71304;DHT22;59091;47.446;19.148;2023-01-28T07:18:38;3.95;71.82
71304;DHT22;59091;47.446;19.148;2023-01-28T07:21:03;3.90;71.97
71304;DHT22;59091;47.446;19.148;2023-01-28T07:23:29;3.77;72.43
71304;DHT22;59091;47.446;19.148;2023-01-28T07:25:54;3.77;72.76
71304;DHT22;59091;47.446;19.148;2023-01-28T07:28:20;3.82;72.71
71304;DHT22;59091;47.446;19.148;2023-01-28T07:30:49;3.82;72.53
71304;DHT22;59091;47.446;19.148;2023-01-28T07:33:16;3.67;73.62
71304;DHT22;59091;47.446;19.148;2023-01-28T07:35:42;3.54;74.27
71304;DHT22;59091;47.446;19.148;2023-01-28T07:38:07;3.47;74.63
71304;DHT22;59091;47.446;19.148;2023-01-28T07:40:32;3.64;74.47
71304;DHT22;59091;47.446;19.148;2023-01-28T07:42:58;3.51;75.03
71304;DHT22;59091;47.446;19.148;2023-01-28T07:45:25;3.64;74.98
71304;DHT22;59091;47.446;19.148;2023-01-28T07:47:58;3.75;74.54
71304;DHT22;59091;47.446;19.148;2023-01-28T07:50:25;3.71;75.06
71304;DHT22;59091;47.446;19.148;2023-01-28T07:52:51;3.63;74.89
71304;DHT22;59091;47.446;19.148;2023-01-28T07:55:16;3.81;74.91
71304;DHT22;59091;47.446;19.148;2023-01-28T07:57:53;3.67;74.77
71304;DHT22;59091;47.446;19.148;2023-01-28T08:00:20;3.70;75.58
71304;DHT22;59091;47.446;19.148;2023-01-28T08:02:46;3.69;75.70
71304;DHT22;59091;47.446;19.148;2023-01-28T08:05:16;3.77;75.39
71304;DHT22;59091;47.446;19.148;2023-01-28T08:07:42;3.81;75.20
71304;DHT22;59091;47.446;19.148;2023-01-28T08:10:09;3.78;75.00
71304;DHT22;59091;47.446;19.148;2023-01-28T08:12:35;3.90;75.22
71304;DHT22;59091;47.446;19.148;2023-01-28T08:15:00;4.04;74.91
71304;DHT22;59091;47.446;19.148;2023-01-28T08:17:26;4.12;74.59
71304;DHT22;59091;47.446;19.148;2023-01-28T08:19:52;4.04;74.39
71304;DHT22;59091;47.446;19.148;2023-01-28T08:22:17;3.85;74.53
71304;DHT22;59091;47.446;19.148;2023-01-28T08:24:43;3.87;74.66
71304;DHT22;59091;47.446;19.148;2023-01-28T08:27:08;3.85;74.96
71304;DHT22;59091;47.446;19.148;2023-01-28T08:29:33;4.01;75.04
71304;DHT22;59091;47.446;19.148;2023-01-28T08:31:59;3.95;74.88
71304;DHT22;59091;47.446;19.148;2023-01-28T08:34:24;4.08;74.90
71304;DHT22;59091;47.446;19.148;2023-01-28T08:36:50;3.95;74.31
71304;DHT22;59091;47.446;19.148;2023-01-28T08:39:15;3.95;74.96
71304;DHT22;59091;47.446;19.148;2023-01-28T08:41:40;3.91;74.90
71304;DHT22;59091;47.446;19.148;2023-01-28T08:44:06;3.80;75.93
71304;DHT22;59091;47.446;19.148;2023-01-28T08:46:32;3.78;75.62
71304;DHT22;59091;47.446;19.148;2023-01-28T08:48:57;3.88;75.76
71304;DHT22;59091;47.446;19.148;2023-01-28T08:51:22;3.94;75.86
71304;DHT22;59091;47.446;19.148;2023-01-28T08:53:48;4.11;79.02
71304;DHT22;59091;47.446;19.148;2023-01-28T08:56:13;3.95;75.04
71304;DHT22;59091;47.446;19.148;2023-01-28T08:58:39;3.94;76.36
71304;DHT22;59091;47.446;19.148;2023-01-28T09:01:05;3.99;75.30
71304;DHT22;59091;47.446;19.148;2023-01-28T09:03:31;4.52;84.76
71304;DHT22;59091;47.446;19.148;2023-01-28T09:06:03;4.60;80.58
71304;DHT22;59091;47.446;19.148;2023-01-28T09:08:29;4.70;75.95
71304;DHT22;59091;47.446;19.148;2023-01-28T09:10:58;4.64;74.01
71304;DHT22;59091;47.446;19.148;2023-01-28T09:13:24;4.48;74.28
71304;DHT22;59091;47.446;19.148;2023-01-28T09:15:50;4.35;74.45
71304;DHT22;59091;47.446;19.148;2023-01-28T09:18:16;4.29;74.56
71304;DHT22;59091;47.446;19.148;2023-01-28T09:20:42;3.99;75.40
71304;DHT22;59091;47.446;19.148;2023-01-28T09:23:07;4.01;75.74
71304;DHT22;59091;47.446;19.148;2023-01-28T09:25:34;4.53;83.01
71304;DHT22;59091;47.446;19.148;2023-01-28T09:28:00;4.38;75.53
71304;DHT22;59091;47.446;19.148;2023-01-28T09:30:26;4.46;74.94
71304;DHT22;59091;47.446;19.148;2023-01-28T09:32:53;4.62;76.31
71304;DHT22;59091;47.446;19.148;2023-01-28T09:35:20;4.72;76.75
71304;DHT22;59091;47.446;19.148;2023-01-28T09:37:45;4.63;74.34
71304;DHT22;59091;47.446;19.148;2023-01-28T09:45:46;4.85;80.67
71304;DHT22;59091;47.446;19.148;2023-01-28T09:48:16;4.88;74.63
71304;DHT22;59091;47.446;19.148;2023-01-28T09:50:52;4.57;71.90
71304;DHT22;59091;47.446;19.148;2023-01-28T09:53:24;4.59;72.84
71304;DHT22;59091;47.446;19.148;2023-01-28T09:56:08;4.57;72.99
71304;DHT22;59091;47.446;19.148;2023-01-28T09:58:35;4.50;73.09
71304;DHT22;59091;47.446;19.148;2023-01-28T10:09:52;4.83;72.92
71304;DHT22;59091;47.446;19.148;2023-01-28T10:17:49;5.10;71.02
71304;DHT22;59091;47.446;19.148;2023-01-28T10:23:20;5.17;70.54
71304;DHT22;59091;47.446;19.148;2023-01-28T10:25:47;5.10;70.23
71304;DHT22;59091;47.446;19.148;2023-01-28T10:28:28;5.18;69.10
71304;DHT22;59091;47.446;19.148;2023-01-28T10:30:54;4.97;70.59
71304;DHT22;59091;47.446;19.148;2023-01-28T10:35:53;5.23;69.71
71304;DHT22;59091;47.446;19.148;2023-01-28T10:38:21;5.14;69.74
71304;DHT22;59091;47.446;19.148;2023-01-28T10:40:48;5.27;70.00
71304;DHT22;59091;47.446;19.148;2023-01-28T10:43:20;5.25;69.82
71304;DHT22;59091;47.446;19.148;2023-01-28T10:46:06;5.32;69.31
71304;DHT22;59091;47.446;19.148;2023-01-28T10:48:36;5.48;69.00
71304;DHT22;59091;47.446;19.148;2023-01-28T10:51:03;5.59;70.43
71304;DHT22;59091;47.446;19.148;2023-01-28T10:53:39;5.70;68.24
71304;DHT22;59091;47.446;19.148;2023-01-28T10:56:12;5.75;68.28
71304;DHT22;59091;47.446;19.148;2023-01-28T10:59:01;5.44;67.46
71304;DHT22;59091;47.446;19.148;2023-01-28T11:02:00;5.27;67.94
71304;DHT22;59091;47.446;19.148;2023-01-28T11:04:33;5.85;81.45
71304;DHT22;59091;47.446;19.148;2023-01-28T11:06:59;6.02;68.54
71304;DHT22;59091;47.446;19.148;2023-01-28T11:09:46;5.82;66.87
71304;DHT22;59091;47.446;19.148;2023-01-28T11:12:22;5.56;67.46
71304;DHT22;59091;47.446;19.148;2023-01-28T11:14:56;5.52;68.08
71304;DHT22;59091;47.446;19.148;2023-01-28T11:17:24;5.72;67.77
71304;DHT22;59091;47.446;19.148;2023-01-28T11:19:54;5.80;67.27
71304;DHT22;59091;47.446;19.148;2023-01-28T11:22:38;5.92;66.83
71304;DHT22;59091;47.446;19.148;2023-01-28T11:27:46;5.85;66.58
71304;DHT22;59091;47.446;19.148;2023-01-28T11:33:01;5.80;66.21
71304;DHT22;59091;47.446;19.148;2023-01-28T11:35:29;6.13;65.77
71304;DHT22;59091;47.446;19.148;2023-01-28T11:37:57;6.09;65.19
71304;DHT22;59091;47.446;19.148;2023-01-28T11:40:22;5.96;65.48
71304;DHT22;59091;47.446;19.148;2023-01-28T11:42:53;6.00;65.65
71304;DHT22;59091;47.446;19.148;2023-01-28T11:45:34;6.23;65.53
71304;DHT22;59091;47.446;19.148;2023-01-28T11:50:59;5.87;63.37
71304;DHT22;59091;47.446;19.148;2023-01-28T12:02:17;6.28;61.75
71304;DHT22;59091;47.446;19.148;2023-01-28T12:07:30;6.57;64.18
71304;DHT22;59091;47.446;19.148;2023-01-28T12:10:15;6.68;61.51
71304;DHT22;59091;47.446;19.148;2023-01-28T12:21:35;6.28;60.13
71304;DHT22;59091;47.446;19.148;2023-01-28T12:27:06;6.31;60.71
71304;DHT22;59091;47.446;19.148;2023-01-28T12:29:49;6.40;60.19
71304;DHT22;59091;47.446;19.148;2023-01-28T12:33:06;6.48;60.66
71304;DHT22;59091;47.446;19.148;2023-01-28T12:38:17;6.23;60.06
71304;DHT22;59091;47.446;19.148;2023-01-28T12:46:27;6.36;60.63
71304;DHT22;59091;47.446;19.148;2023-01-28T12:51:33;6.42;60.14
71304;DHT22;59091;47.446;19.148;2023-01-28T12:54:17;6.41;59.26
71304;DHT22;59091;47.446;19.148;2023-01-28T12:56:49;6.61;59.08
71304;DHT22;59091;47.446;19.148;2023-01-28T12:59:26;6.92;70.10
71304;DHT22;59091;47.446;19.148;2023-01-28T13:02:05;6.74;59.47
71304;DHT22;59091;47.446;19.148;2023-01-28T13:07:17;6.47;58.71
71304;DHT22;59091;47.446;19.148;2023-01-28T13:09:52;6.58;59.15
71304;DHT22;59091;47.446;19.148;2023-01-28T13:12:18;6.30;58.84
71304;DHT22;59091;47.446;19.148;2023-01-28T13:14:44;6.47;58.68
71304;DHT22;59091;47.446;19.148;2023-01-28T13:17:22;6.52;58.22
71304;DHT22;59091;47.446;19.148;2023-01-28T13:19:48;6.68;58.16
71304;DHT22;59091;47.446;19.148;2023-01-28T13:22:34;6.51;57.55
71304;DHT22;59091;47.446;19.148;2023-01-28T13:28:00;6.41;57.90
71304;DHT22;59091;47.446;19.148;2023-01-28T13:30:34;6.54;58.38
71304;DHT22;59091;47.446;19.148;2023-01-28T13:33:39;6.49;57.96
71304;DHT22;59091;47.446;19.148;2023-01-28T13:38:43;6.59;58.03
71304;DHT22;59091;47.446;19.148;2023-01-28T13:41:09;6.51;57.97
71304;DHT22;59091;47.446;19.148;2023-01-28T13:43:39;6.65;57.47
71304;DHT22;59091;47.446;19.148;2023-01-28T13:46:26;6.71;56.96
71304;DHT22;59091;47.446;19.148;2023-01-28T13:48:54;6.54;57.71
71304;DHT22;59091;47.446;19.148;2023-01-28T13:51:23;6.59;57.63
71304;DHT22;59091;47.446;19.148;2023-01-28T13:54:13;6.45;57.64
71304;DHT22;59091;47.446;19.148;2023-01-28T13:59:29;6.63;60.37
71304;DHT22;59091;47.446;19.148;2023-01-28T14:15:21;6.59;57.13
71304;DHT22;59091;47.446;19.148;2023-01-28T14:17:52;6.78;58.69
71304;DHT22;59091;47.446;19.148;2023-01-28T14:20:21;6.81;57.56
71304;DHT22;59091;47.446;19.148;2023-01-28T14:22:50;6.71;57.67
71304;DHT22;59091;47.446;19.148;2023-01-28T14:25:28;6.55;58.22
71304;DHT22;59091;47.446;19.148;2023-01-28T14:27:59;6.58;58.54
71304;DHT22;59091;47.446;19.148;2023-01-28T14:30:55;6.54;58.43
71304;DHT22;59091;47.446;19.148;2023-01-28T14:33:22;6.64;58.57
71304;DHT22;59091;47.446;19.148;2023-01-28T14:35:48;6.59;58.69
71304;DHT22;59091;47.446;19.148;2023-01-28T14:38:17;6.36;58.96
71304;DHT22;59091;47.446;19.148;2023-01-28T14:40:48;6.13;59.84
71304;DHT22;59091;47.446;19.148;2023-01-28T14:43:25;6.13;59.72
71304;DHT22;59091;47.446;19.148;2023-01-28T14:45:57;6.26;60.17
71304;DHT22;59091;47.446;19.148;2023-01-28T14:51:32;6.20;59.77
71304;DHT22;59091;47.446;19.148;2023-01-28T14:54:11;6.17;59.95
71304;DHT22;59091;47.446;19.148;2023-01-28T14:57:01;6.24;59.91
71304;DHT22;59091;47.446;19.148;2023-01-28T15:02:16;6.45;59.40
71304;DHT22;59091;47.446;19.148;2023-01-28T15:04:42;6.28;59.55
71304;DHT22;59091;47.446;19.148;2023-01-28T15:07:24;6.16;59.58
71304;DHT22;59091;47.446;19.148;2023-01-28T15:12:53;6.03;60.66
71304;DHT22;59091;47.446;19.148;2023-01-28T15:17:57;6.09;60.89
71304;DHT22;59091;47.446;19.148;2023-01-28T15:20:24;5.95;61.01
71304;DHT22;59091;47.446;19.148;2023-01-28T15:22:52;5.90;60.98
71304;DHT22;59091;47.446;19.148;2023-01-28T15:25:20;5.83;61.71
71304;DHT22;59091;47.446;19.148;2023-01-28T15:27:47;5.95;61.79
71304;DHT22;59091;47.446;19.148;2023-01-28T15:30:19;5.90;62.15
71304;DHT22;59091;47.446;19.148;2023-01-28T15:32:45;5.93;62.99
71304;DHT22;59091;47.446;19.148;2023-01-28T15:35:12;5.96;63.25
71304;DHT22;59091;47.446;19.148;2023-01-28T15:37:38;5.85;64.04
71304;DHT22;59091;47.446;19.148;2023-01-28T15:40:05;5.85;64.20
71304;DHT22;59091;47.446;19.148;2023-01-28T15:42:31;5.69;65.37
71304;DHT22;59091;47.446;19.148;2023-01-28T15:44:57;5.60;65.31
71304;DHT22;59091;47.446;19.148;2023-01-28T15:47:32;5.55;65.56
71304;DHT22;59091;47.446;19.148;2023-01-28T15:50:02;5.62;65.75
71304;DHT22;59091;47.446;19.148;2023-01-28T15:52:31;5.58;66.15
71304;DHT22;59091;47.446;19.148;2023-01-28T15:54:58;5.35;66.39
71304;DHT22;59091;47.446;19.148;2023-01-28T15:57:27;5.36;66.65
71304;DHT22;59091;47.446;19.148;2023-01-28T16:00:12;5.11;67.10
71304;DHT22;59091;47.446;19.148;2023-01-28T16:02:51;5.10;67.37
71304;DHT22;59091;47.446;19.148;2023-01-28T16:05:51;4.84;68.29
71304;DHT22;59091;47.446;19.148;2023-01-28T16:08:25;5.01;68.11
71304;DHT22;59091;47.446;19.148;2023-01-28T16:10:53;5.00;69.40
71304;DHT22;59091;47.446;19.148;2023-01-28T16:13:23;4.95;68.55
71304;DHT22;59091;47.446;19.148;2023-01-28T16:15:51;4.93;68.85
71304;DHT22;59091;47.446;19.148;2023-01-28T16:20:46;4.93;68.65
71304;DHT22;59091;47.446;19.148;2023-01-28T16:23:20;4.85;68.92
71304;DHT22;59091;47.446;19.148;2023-01-28T16:26:01;4.81;69.12
71304;DHT22;59091;47.446;19.148;2023-01-28T16:28:27;4.72;69.52
71304;DHT22;59091;47.446;19.148;2023-01-28T16:30:54;4.76;69.63
71304;DHT22;59091;47.446;19.148;2023-01-28T16:33:20;4.73;69.68
71304;DHT22;59091;47.446;19.148;2023-01-28T16:35:47;4.64;70.30
71304;DHT22;59091;47.446;19.148;2023-01-28T16:38:12;4.77;70.01
71304;DHT22;59091;47.446;19.148;2023-01-28T16:40:42;4.79;70.01
71304;DHT22;59091;47.446;19.148;2023-01-28T16:43:11;4.70;69.93
71304;DHT22;59091;47.446;19.148;2023-01-28T16:45:37;4.77;70.03
71304;DHT22;59091;47.446;19.148;2023-01-28T16:48:03;4.70;70.29
71304;DHT22;59091;47.446;19.148;2023-01-28T16:50:30;4.72;70.35
71304;DHT22;59091;47.446;19.148;2023-01-28T16:52:57;4.52;70.79
71304;DHT22;59091;47.446;19.148;2023-01-28T16:55:23;4.53;70.74
71304;DHT22;59091;47.446;19.148;2023-01-28T16:57:52;4.57;70.77
71304;DHT22;59091;47.446;19.148;2023-01-28T17:00:25;4.62;70.67
71304;DHT22;59091;47.446;19.148;2023-01-28T17:02:52;4.67;70.63
71304;DHT22;59091;47.446;19.148;2023-01-28T17:05:20;4.74;70.45
71304;DHT22;59091;47.446;19.148;2023-01-28T17:07:46;4.84;70.41
71304;DHT22;59091;47.446;19.148;2023-01-28T17:10:16;4.63;70.73
71304;DHT22;59091;47.446;19.148;2023-01-28T17:12:42;4.64;70.96
71304;DHT22;59091;47.446;19.148;2023-01-28T17:15:08;4.77;70.68
71304;DHT22;59091;47.446;19.148;2023-01-28T17:17:34;4.81;70.44
71304;DHT22;59091;47.446;19.148;2023-01-28T17:19:59;4.72;70.77
71304;DHT22;59091;47.446;19.148;2023-01-28T17:22:25;4.70;70.82
71304;DHT22;59091;47.446;19.148;2023-01-28T17:24:51;4.66;70.70
71304;DHT22;59091;47.446;19.148;2023-01-28T17:27:16;4.48;71.10
71304;DHT22;59091;47.446;19.148;2023-01-28T17:29:41;4.62;70.97
71304;DHT22;59091;47.446;19.148;2023-01-28T17:32:07;4.60;70.96
71304;DHT22;59091;47.446;19.148;2023-01-28T17:34:32;4.59;71.05
71304;DHT22;59091;47.446;19.148;2023-01-28T17:36:58;4.59;71.02
71304;DHT22;59091;47.446;19.148;2023-01-28T17:39:23;4.60;71.02
71304;DHT22;59091;47.446;19.148;2023-01-28T17:41:49;4.56;71.01
71304;DHT22;59091;47.446;19.148;2023-01-28T17:44:17;4.39;71.36
71304;DHT22;59091;47.446;19.148;2023-01-28T17:46:43;4.38;71.34
71304;DHT22;59091;47.446;19.148;2023-01-28T17:49:09;4.33;71.39
71304;DHT22;59091;47.446;19.148;2023-01-28T17:51:34;4.28;71.35
71304;DHT22;59091;47.446;19.148;2023-01-28T17:54:00;4.42;71.06
71304;DHT22;59091;47.446;19.148;2023-01-28T17:56:27;4.41;70.97
71304;DHT22;59091;47.446;19.148;2023-01-28T17:58:58;4.28;71.17